Time;durP1;ratioP1;P1;durP2;ratioP2;P2;SDS_P1;SDS_P2;PMS_P1;PMS_P2;Temp;Humidity;BMP_temperature;BMP_pressure;BME280_temperature;BME280_humidity;BME280_pressure;Samples;Min_cycle;Max_cycle;Signal;HPM_P1;HPM_P2
2023/04/25 00:00:52;;;;;;;0.80;0.80;;;;;;;;;;5072493;28;20202;-85
2023/04/25 00:03:20;;;;;;;0.70;0.70;;;;;;;;;;5072571;28;20271;-84
2023/04/25 00:05:51;;;;;;;0.80;0.80;;;;;;;;;;5072029;28;20205;-85
2023/04/25 00:08:20;;;;;;;0.80;0.80;;;;;;;;;;5072583;28;20198;-85
2023/04/25 00:10:48;;;;;;;0.70;0.70;;;;;;;;;;5072375;28;20197;-85
2023/04/25 00:13:17;;;;;;;0.70;0.70;;;;;;;;;;5071883;28;20229;-86
2023/04/25 00:15:48;;;;;;;0.80;0.80;;;;;;;;;;5071870;28;20304;-85
2023/04/25 00:18:17;;;;;;;0.80;0.80;;;;;;;;;;5072162;28;20244;-85
2023/04/25 00:20:46;;;;;;;0.70;0.70;;;;;;;;;;5071637;28;20220;-85
2023/04/25 00:23:17;;;;;;;0.70;0.70;;;;;;;;;;5072106;28;20209;-86
2023/04/25 00:25:45;;;;;;;0.80;0.80;;;;;;;;;;5071920;28;20210;-85
2023/04/25 00:28:14;;;;;;;0.80;0.80;;;;;;;;;;5071350;28;20289;-85
2023/04/25 00:30:43;;;;;;;0.70;0.70;;;;;;;;;;5071974;28;20343;-85
2023/04/25 00:33:12;;;;;;;0.80;0.80;;;;;;;;;;5071899;28;20201;-86
2023/04/25 00:35:41;;;;;;;0.80;0.80;;;;;;;;;;5071548;28;20193;-86
2023/04/25 00:38:09;;;;;;;0.70;0.70;;;;;;;;;;5072242;28;20211;-86
2023/04/25 00:40:38;;;;;;;0.70;0.70;;;;;;;;;;5071705;28;20255;-85
2023/04/25 00:43:06;;;;;;;0.80;0.80;;;;;;;;;;5071557;28;20260;-85
2023/04/25 00:45:38;;;;;;;0.70;0.70;;;;;;;;;;5071443;28;20222;-85
2023/04/25 00:48:07;;;;;;;0.70;0.70;;;;;;;;;;5071827;28;20201;-84
2023/04/25 00:50:37;;;;;;;0.80;0.80;;;;;;;;;;5071593;28;20206;-85
2023/04/25 00:53:05;;;;;;;0.80;0.80;;;;;;;;;;5071473;28;20193;-85
2023/04/25 00:55:34;;;;;;;0.80;0.80;;;;;;;;;;5071513;28;20205;-85
2023/04/25 00:58:03;;;;;;;0.80;0.80;;;;;;;;;;5071275;28;20385;-85
2023/04/25 01:00:31;;;;;;;0.80;0.80;;;;;;;;;;5071035;28;20197;-84
2023/04/25 01:03:00;;;;;;;0.80;0.80;;;;;;;;;;5071898;28;20205;-85
2023/04/25 01:05:29;;;;;;;0.80;0.80;;;;;;;;;;5071275;28;20333;-85
2023/04/25 01:07:58;;;;;;;0.80;0.80;;;;;;;;;;5071147;28;20212;-85
2023/04/25 01:10:27;;;;;;;0.70;0.70;;;;;;;;;;5071537;28;20275;-84
2023/04/25 01:12:55;;;;;;;0.80;0.80;;;;;;;;;;5071684;28;20300;-85
2023/04/25 01:15:24;;;;;;;0.70;0.70;;;;;;;;;;5070321;28;20270;-84
2023/04/25 01:17:52;;;;;;;0.80;0.80;;;;;;;;;;5071702;28;20198;-84
2023/04/25 01:20:22;;;;;;;0.73;0.73;;;;;;;;;;5071264;28;20205;-85
2023/04/25 01:22:52;;;;;;;0.70;0.70;;;;;;;;;;5071018;28;20251;-85
2023/04/25 01:25:21;;;;;;;0.80;0.80;;;;;;;;;;5071161;28;20311;-85
2023/04/25 01:27:49;;;;;;;0.80;0.80;;;;;;;;;;5071402;28;20222;-84
2023/04/25 01:30:18;;;;;;;0.80;0.80;;;;;;;;;;5070916;28;20219;-85
2023/04/25 01:32:47;;;;;;;0.80;0.80;;;;;;;;;;5071516;28;20202;-85
2023/04/25 01:35:17;;;;;;;0.70;0.70;;;;;;;;;;5071058;28;20285;-85
2023/04/25 01:37:46;;;;;;;0.80;0.80;;;;;;;;;;5070922;28;20240;-85
2023/04/25 01:40:16;;;;;;;0.80;0.80;;;;;;;;;;5071295;28;20210;-85
2023/04/25 01:42:45;;;;;;;0.70;0.70;;;;;;;;;;5071112;28;20237;-85
2023/04/25 01:45:14;;;;;;;0.70;0.70;;;;;;;;;;5071178;28;20221;-85
2023/04/25 01:47:43;;;;;;;0.80;0.80;;;;;;;;;;5071245;28;20201;-85
2023/04/25 01:50:12;;;;;;;0.70;0.70;;;;;;;;;;5070911;28;20201;-85
2023/04/25 01:52:40;;;;;;;0.80;0.80;;;;;;;;;;5070833;28;20198;-85
2023/04/25 01:55:09;;;;;;;0.70;0.70;;;;;;;;;;5070583;28;20244;-84
2023/04/25 01:57:39;;;;;;;0.70;0.70;;;;;;;;;;5070774;28;20226;-85
2023/04/25 02:00:08;;;;;;;0.70;0.70;;;;;;;;;;5070934;28;20206;-84
2023/04/25 02:02:37;;;;;;;0.70;0.70;;;;;;;;;;5070499;28;20199;-84
2023/04/25 02:05:06;;;;;;;0.70;0.70;;;;;;;;;;5070639;28;20274;-88
2023/04/25 02:07:34;;;;;;;4.67;2.07;;;;;;;;;;5071340;28;20300;-88
2023/04/25 02:10:03;;;;;;;4.03;2.50;;;;;;;;;;5070494;28;20214;-88
2023/04/25 02:12:32;;;;;;;3.07;2.60;;;;;;;;;;5070779;28;20193;-87
2023/04/25 02:15:04;;;;;;;1.13;1.13;;;;;;;;;;5071320;28;20224;-88
2023/04/25 02:17:33;;;;;;;1.70;1.60;;;;;;;;;;5070682;28;20217;-87
2023/04/25 02:20:01;;;;;;;4.13;2.20;;;;;;;;;;5070682;28;20198;-88
2023/04/25 02:22:30;;;;;;;1.37;1.30;;;;;;;;;;5070522;28;20208;-88
2023/04/25 02:24:59;;;;;;;9.20;5.80;;;;;;;;;;5071065;28;20218;-88
2023/04/25 02:27:27;;;;;;;2.80;2.03;;;;;;;;;;5074050;28;20225;-88
2023/04/25 02:29:55;;;;;;;17.47;4.13;;;;;;;;;;5074413;28;20260;-88
2023/04/25 02:32:25;;;;;;;0.90;0.90;;;;;;;;;;5074222;28;20206;-88
2023/04/25 02:34:54;;;;;;;4.60;2.27;;;;;;;;;;5073883;28;20198;-89
2023/04/25 02:37:22;;;;;;;4.20;1.97;;;;;;;;;;5074736;28;20201;-88
2023/04/25 02:39:51;;;;;;;2.10;1.13;;;;;;;;;;5074162;28;20198;-88
2023/04/25 02:42:19;;;;;;;11.33;3.93;;;;;;;;;;5073997;28;20202;-89
2023/04/25 02:44:48;;;;;;;1.93;1.40;;;;;;;;;;5073898;28;20237;-89
2023/04/25 02:47:16;;;;;;;5.67;2.73;;;;;;;;;;5074549;28;20233;-88
2023/04/25 02:49:46;;;;;;;1.60;1.50;;;;;;;;;;5074149;28;20209;-89
2023/04/25 02:52:15;;;;;;;9.37;1.57;;;;;;;;;;5073683;28;20232;-89
2023/04/25 02:54:43;;;;;;;1.27;1.23;;;;;;;;;;5074397;28;20251;-89
2023/04/25 02:57:11;;;;;;;1.93;1.83;;;;;;;;;;5073415;28;20201;-89
2023/04/25 02:59:40;;;;;;;5.23;2.37;;;;;;;;;;5073695;28;20226;-90
2023/04/25 03:02:08;;;;;;;5.83;2.13;;;;;;;;;;5074148;28;20255;-89
2023/04/25 03:04:37;;;;;;;3.17;2.33;;;;;;;;;;5073780;28;20275;-90
2023/04/25 03:07:07;;;;;;;1.90;1.80;;;;;;;;;;5074075;28;20206;-90
2023/04/25 03:09:35;;;;;;;2.77;1.97;;;;;;;;;;5073954;28;20255;-90
2023/04/25 03:12:04;;;;;;;2.87;2.27;;;;;;;;;;5073711;28;20259;-89
2023/04/25 03:14:32;;;;;;;2.47;2.27;;;;;;;;;;5073796;28;20229;-90
2023/04/25 03:17:01;;;;;;;2.13;1.93;;;;;;;;;;5073980;28;20238;-90
2023/04/25 03:19:29;;;;;;;3.77;2.20;;;;;;;;;;5073547;28;20209;-91
2023/04/25 03:21:58;;;;;;;3.33;1.77;;;;;;;;;;5073481;28;20292;-91
2023/04/25 03:24:28;;;;;;;2.40;1.77;;;;;;;;;;5073947;28;20269;-90
2023/04/25 03:26:56;;;;;;;2.43;1.63;;;;;;;;;;5074233;28;20229;-90
2023/04/25 03:29:26;;;;;;;1.20;1.20;;;;;;;;;;5073448;28;20258;-90
2023/04/25 03:31:54;;;;;;;3.70;1.93;;;;;;;;;;5074541;28;20216;-91
2023/04/25 03:34:23;;;;;;;3.37;2.00;;;;;;;;;;5074199;28;20294;-90
2023/04/25 03:36:52;;;;;;;6.20;2.87;;;;;;;;;;5072849;28;20194;-91
2023/04/25 03:39:20;;;;;;;1.70;1.60;;;;;;;;;;5074170;28;20202;-91
2023/04/25 03:41:50;;;;;;;5.60;1.60;;;;;;;;;;5074160;28;20225;-91
2023/04/25 03:44:18;;;;;;;2.10;1.27;;;;;;;;;;5073503;28;20198;-91
2023/04/25 03:46:47;;;;;;;1.17;1.17;;;;;;;;;;5074134;28;20271;-91
2023/04/25 03:49:15;;;;;;;1.83;1.57;;;;;;;;;;5074070;28;20201;-91
2023/04/25 03:51:46;;;;;;;0.90;0.90;;;;;;;;;;5073879;28;20204;-91
2023/04/25 03:54:15;;;;;;;2.60;2.40;;;;;;;;;;5073898;28;20205;-91
2023/04/25 03:56:43;;;;;;;1.23;1.13;;;;;;;;;;5074262;28;20293;-92
2023/04/25 03:59:13;;;;;;;3.63;2.30;;;;;;;;;;5073505;28;20276;-91
2023/04/25 04:01:41;;;;;;;1.60;1.17;;;;;;;;;;5073197;28;20200;-92
2023/04/25 04:04:10;;;;;;;0.87;0.87;;;;;;;;;;5073662;28;20267;-91
2023/04/25 04:06:38;;;;;;;0.90;0.90;;;;;;;;;;5073755;28;20218;-91
2023/04/25 04:09:09;;;;;;;0.80;0.80;;;;;;;;;;5073385;28;20190;-91
2023/04/25 04:11:39;;;;;;;4.00;2.13;;;;;;;;;;5073913;28;20202;-91
2023/04/25 04:14:07;;;;;;;0.80;0.80;;;;;;;;;;5073547;28;20202;-91
2023/04/25 04:16:37;;;;;;;0.80;0.80;;;;;;;;;;5072784;28;20189;-92
2023/04/25 04:19:06;;;;;;;1.10;1.10;;;;;;;;;;5073388;28;20206;-92
2023/04/25 04:21:34;;;;;;;1.80;1.10;;;;;;;;;;5073411;28;20197;-92
2023/04/25 04:24:03;;;;;;;0.90;0.90;;;;;;;;;;5072752;28;20205;-91
2023/04/25 04:26:31;;;;;;;1.57;1.57;;;;;;;;;;5072985;28;20221;-92
2023/04/25 04:29:00;;;;;;;2.73;1.77;;;;;;;;;;5072694;28;20201;-92
2023/04/25 04:31:29;;;;;;;1.37;1.27;;;;;;;;;;5073446;28;20197;-92
2023/04/25 04:34:01;;;;;;;3.50;2.17;;;;;;;;;;5073007;28;20305;-91
2023/04/25 04:36:29;;;;;;;2.60;2.40;;;;;;;;;;5073288;28;20217;-91
2023/04/25 04:38:58;;;;;;;3.63;1.73;;;;;;;;;;5072586;28;20190;-92
2023/04/25 04:41:26;;;;;;;3.40;1.53;;;;;;;;;;5073325;28;20243;-92
2023/04/25 04:43:55;;;;;;;1.50;1.40;;;;;;;;;;5073191;28;20233;-92
2023/04/25 04:46:24;;;;;;;3.47;1.97;;;;;;;;;;5072813;28;20221;-92
2023/04/25 04:48:53;;;;;;;2.80;1.70;;;;;;;;;;5071966;28;20211;-92
2023/04/25 04:51:23;;;;;;;2.37;2.17;;;;;;;;;;5072820;28;20201;-91
2023/04/25 04:53:51;;;;;;;1.87;1.77;;;;;;;;;;5072860;28;20198;-92
2023/04/25 04:56:23;;;;;;;5.23;2.73;;;;;;;;;;5073121;28;20247;-85
2023/04/25 04:58:52;;;;;;;1.07;1.07;;;;;;;;;;5071330;28;20225;-84
2023/04/25 05:01:20;;;;;;;2.90;2.27;;;;;;;;;;5071811;28;20205;-85
2023/04/25 05:03:49;;;;;;;4.50;2.63;;;;;;;;;;5071168;28;20249;-85
2023/04/25 05:06:18;;;;;;;1.50;1.40;;;;;;;;;;5071836;28;20218;-92
2023/04/25 05:08:48;;;;;;;6.90;2.07;;;;;;;;;;5073559;28;20209;-91
2023/04/25 05:11:17;;;;;;;1.60;1.53;;;;;;;;;;5072827;28;20216;-92
2023/04/25 05:13:46;;;;;;;1.97;1.87;;;;;;;;;;5073166;28;20209;-91
2023/04/25 05:16:15;;;;;;;0.90;0.90;;;;;;;;;;5073331;28;20205;-90
2023/04/25 05:18:43;;;;;;;1.20;1.20;;;;;;;;;;5072660;28;20296;-91
2023/04/25 05:21:13;;;;;;;1.53;1.37;;;;;;;;;;5072740;28;20285;-90
2023/04/25 05:23:42;;;;;;;0.90;0.90;;;;;;;;;;5073237;28;20209;-92
2023/04/25 05:26:13;;;;;;;1.27;1.27;;;;;;;;;;5071803;28;20297;-90
2023/04/25 05:28:42;;;;;;;2.77;1.97;;;;;;;;;;5072123;28;20252;-90
2023/04/25 05:31:11;;;;;;;7.93;2.30;;;;;;;;;;5071819;28;20224;-90
2023/04/25 05:33:39;;;;;;;1.83;1.73;;;;;;;;;;5071254;28;20212;-85
2023/04/25 05:36:08;;;;;;;3.90;2.03;;;;;;;;;;5071857;28;20193;-90
2023/04/25 05:38:37;;;;;;;4.13;2.63;;;;;;;;;;5072244;28;20205;-91
2023/04/25 05:41:05;;;;;;;1.90;1.80;;;;;;;;;;5072187;28;20206;-91
2023/04/25 05:43:35;;;;;;;2.20;1.40;;;;;;;;;;5072033;28;20232;-90
2023/04/25 05:46:03;;;;;;;2.10;1.63;;;;;;;;;;5071745;28;20202;-90
2023/04/25 05:48:32;;;;;;;1.40;1.40;;;;;;;;;;5071722;28;20217;-91
2023/04/25 05:51:00;;;;;;;1.10;1.00;;;;;;;;;;5071761;28;20233;-91
2023/04/25 05:53:29;;;;;;;1.70;1.23;;;;;;;;;;5072014;28;20197;-91
2023/04/25 05:55:57;;;;;;;1.00;1.00;;;;;;;;;;5071928;28;20209;-91
2023/04/25 05:58:26;;;;;;;2.67;1.77;;;;;;;;;;5071922;28;20229;-91
2023/04/25 06:00:56;;;;;;;8.10;2.37;;;;;;;;;;5073739;28;20198;-91
2023/04/25 06:03:27;;;;;;;4.07;2.63;;;;;;;;;;5076390;28;20201;-89
2023/04/25 06:05:56;;;;;;;1.73;1.63;;;;;;;;;;5075369;28;20198;-89
2023/04/25 06:08:24;;;;;;;4.57;2.37;;;;;;;;;;5075624;28;20221;-87
2023/04/25 06:10:53;;;;;;;5.83;1.50;;;;;;;;;;5075308;28;20205;-87
2023/04/25 06:13:22;;;;;;;3.60;1.33;;;;;;;;;;5074934;28;20233;-87
2023/04/25 06:15:50;;;;;;;1.13;1.10;;;;;;;;;;5075197;28;20202;-87
2023/04/25 06:18:20;;;;;;;1.73;1.63;;;;;;;;;;5074821;28;20185;-87
2023/04/25 06:20:49;;;;;;;1.17;1.17;;;;;;;;;;5074165;28;20220;-85
2023/04/25 06:23:17;;;;;;;0.97;0.97;;;;;;;;;;5074487;28;20230;-84
2023/04/25 06:25:46;;;;;;;1.00;1.00;;;;;;;;;;5074533;28;20212;-84
2023/04/25 06:28:14;;;;;;;1.83;1.73;;;;;;;;;;5074546;28;20290;-84
2023/04/25 06:30:42;;;;;;;6.20;1.87;;;;;;;;;;5074392;28;20274;-84
2023/04/25 06:33:11;;;;;;;16.70;3.00;;;;;;;;;;5074343;28;20198;-84
2023/04/25 06:35:41;;;;;;;0.93;0.93;;;;;;;;;;5074107;28;20243;-84
2023/04/25 06:38:09;;;;;;;5.13;2.80;;;;;;;;;;5074225;28;20223;-84
2023/04/25 06:40:37;;;;;;;12.37;3.10;;;;;;;;;;5074309;28;20205;-84
2023/04/25 06:43:06;;;;;;;6.07;1.87;;;;;;;;;;5074230;28;20253;-85
2023/04/25 06:45:34;;;;;;;2.87;1.80;;;;;;;;;;5073530;28;20193;-85
2023/04/25 06:48:03;;;;;;;1.27;1.27;;;;;;;;;;5074082;28;20217;-85
2023/04/25 06:50:31;;;;;;;1.47;1.43;;;;;;;;;;5074087;28;20214;-85
2023/04/25 06:53:02;;;;;;;1.37;1.30;;;;;;;;;;5073757;28;20255;-85
2023/04/25 06:55:30;;;;;;;1.57;1.47;;;;;;;;;;5073678;28;20194;-87
2023/04/25 06:57:59;;;;;;;1.93;1.73;;;;;;;;;;5074034;28;20288;-87
2023/04/25 07:00:30;;;;;;;5.60;1.60;;;;;;;;;;5073784;28;20233;-87
2023/04/25 07:02:58;;;;;;;4.33;1.80;;;;;;;;;;5074475;28;20225;-86
2023/04/25 07:05:29;;;;;;;3.53;1.63;;;;;;;;;;5074733;28;20216;-87
2023/04/25 07:07:58;;;;;;;1.97;1.53;;;;;;;;;;5074002;28;20260;-87
2023/04/25 07:10:28;;;;;;;3.40;2.50;;;;;;;;;;5073573;28;20229;-87
2023/04/25 07:12:56;;;;;;;1.10;1.03;;;;;;;;;;5073132;28;20211;-87
2023/04/25 07:15:25;;;;;;;3.43;1.60;;;;;;;;;;5074968;28;20233;-86
2023/04/25 07:17:53;;;;;;;6.80;1.30;;;;;;;;;;5073576;28;20229;-86
2023/04/25 07:20:22;;;;;;;2.17;1.47;;;;;;;;;;5073775;28;20219;-86
2023/04/25 07:22:50;;;;;;;1.77;1.53;;;;;;;;;;5073179;28;20228;-86
2023/04/25 07:25:19;;;;;;;1.40;1.30;;;;;;;;;;5073386;28;20221;-86
2023/04/25 07:27:49;;;;;;;1.20;1.10;;;;;;;;;;5073539;28;20217;-86
2023/04/25 07:30:18;;;;;;;1.60;1.50;;;;;;;;;;5073290;28;20264;-86
2023/04/25 07:32:46;;;;;;;4.80;2.17;;;;;;;;;;5073108;28;20205;-86
2023/04/25 07:35:15;;;;;;;1.43;1.37;;;;;;;;;;5073158;28;20267;-86
2023/04/25 07:37:43;;;;;;;3.63;1.70;;;;;;;;;;5073257;28;20200;-86
2023/04/25 07:40:12;;;;;;;4.00;3.20;;;;;;;;;;5072516;28;20190;-86
2023/04/25 07:42:41;;;;;;;6.97;1.60;;;;;;;;;;5072582;28;20194;-86
2023/04/25 07:45:11;;;;;;;1.40;1.07;;;;;;;;;;5072966;28;20272;-86
2023/04/25 07:47:39;;;;;;;2.03;1.63;;;;;;;;;;5072663;28;20214;-86
2023/04/25 07:50:09;;;;;;;1.30;1.20;;;;;;;;;;5073147;28;20207;-86
2023/04/25 07:52:37;;;;;;;8.70;3.23;;;;;;;;;;5072771;28;20230;-86
2023/04/25 07:55:06;;;;;;;6.00;2.90;;;;;;;;;;5073144;28;20226;-86
2023/04/25 07:57:34;;;;;;;1.50;1.40;;;;;;;;;;5072557;28;20204;-86
2023/04/25 08:00:03;;;;;;;4.77;1.93;;;;;;;;;;5073066;28;20207;-86
2023/04/25 08:02:33;;;;;;;2.13;1.30;;;;;;;;;;5072646;28;20219;-87
2023/04/25 08:05:02;;;;;;;2.90;1.87;;;;;;;;;;5073005;28;20288;-87
2023/04/25 08:07:31;;;;;;;2.77;1.20;;;;;;;;;;5072265;28;20207;-86
2023/04/25 08:09:59;;;;;;;2.63;1.60;;;;;;;;;;5072184;28;20242;-86
2023/04/25 08:12:28;;;;;;;4.93;1.60;;;;;;;;;;5072251;28;20200;-86
2023/04/25 08:14:56;;;;;;;4.10;1.73;;;;;;;;;;5072188;28;20248;-87
2023/04/25 08:17:25;;;;;;;3.70;1.53;;;;;;;;;;5072462;28;20201;-87
2023/04/25 08:19:55;;;;;;;2.03;1.30;;;;;;;;;;5072047;28;20187;-86
2023/04/25 08:22:24;;;;;;;1.30;1.20;;;;;;;;;;5072478;28;20210;-86
2023/04/25 08:24:52;;;;;;;2.93;1.30;;;;;;;;;;5072214;28;20203;-86
2023/04/25 08:27:23;;;;;;;1.93;1.20;;;;;;;;;;5071762;28;20248;-86
2023/04/25 08:29:53;;;;;;;3.53;1.30;;;;;;;;;;5071851;28;20306;-86
2023/04/25 08:32:22;;;;;;;1.50;1.40;;;;;;;;;;5072339;28;20291;-86
2023/04/25 08:34:53;;;;;;;1.70;1.60;;;;;;;;;;5071669;28;20211;-86
2023/04/25 08:37:23;;;;;;;4.57;1.50;;;;;;;;;;5071743;28;20230;-86
2023/04/25 08:39:53;;;;;;;4.27;1.10;;;;;;;;;;5071962;28;20189;-86
2023/04/25 08:42:24;;;;;;;1.40;0.93;;;;;;;;;;5071788;28;20212;-86
2023/04/25 08:44:55;;;;;;;1.53;1.43;;;;;;;;;;5072138;28;20204;-86
2023/04/25 08:47:24;;;;;;;4.47;2.17;;;;;;;;;;5071855;28;20210;-86
2023/04/25 08:49:55;;;;;;;2.27;2.07;;;;;;;;;;5071576;28;20215;-86
2023/04/25 08:52:25;;;;;;;9.23;1.80;;;;;;;;;;5072123;28;20233;-86
2023/04/25 08:54:54;;;;;;;4.30;1.70;;;;;;;;;;5072234;28;20208;-86
2023/04/25 08:57:23;;;;;;;2.40;2.00;;;;;;;;;;5071858;28;20281;-88
2023/04/25 08:59:53;;;;;;;2.77;2.40;;;;;;;;;;5071732;28;20280;-87
2023/04/25 09:02:26;;;;;;;1.37;1.27;;;;;;;;;;5072018;28;20200;-87
2023/04/25 09:04:55;;;;;;;1.70;1.33;;;;;;;;;;5071884;28;20210;-87
2023/04/25 09:07:25;;;;;;;3.07;1.43;;;;;;;;;;5071717;28;20220;-87
2023/04/25 09:09:54;;;;;;;2.00;1.30;;;;;;;;;;5071454;28;20213;-86
2023/04/25 09:12:23;;;;;;;0.97;0.97;;;;;;;;;;5071663;28;20210;-86
2023/04/25 09:15:05;;;;;;;3.00;1.30;;;;;;;;;;5071525;28;20202;-87
2023/04/25 09:17:33;;;;;;;2.53;1.87;;;;;;;;;;5071731;28;20205;-87
2023/04/25 09:20:09;;;;;;;6.20;2.07;;;;;;;;;;5071207;28;20191;-86
2023/04/25 09:22:39;;;;;;;1.33;1.33;;;;;;;;;;5071689;28;20208;-87
2023/04/25 09:25:11;;;;;;;2.10;1.70;;;;;;;;;;5071375;28;20195;-87
2023/04/25 09:27:51;;;;;;;3.00;1.97;;;;;;;;;;5071236;28;20228;-87
2023/04/25 09:30:19;;;;;;;2.20;2.00;;;;;;;;;;5070981;28;20246;-87
2023/04/25 09:32:49;;;;;;;2.00;1.37;;;;;;;;;;5071507;28;20297;-87
2023/04/25 09:35:26;;;;;;;4.37;1.67;;;;;;;;;;5071588;28;20279;-87
2023/04/25 09:37:57;;;;;;;2.93;1.23;;;;;;;;;;5075091;28;20198;-87
2023/04/25 09:40:26;;;;;;;1.60;1.50;;;;;;;;;;5075496;28;20252;-87
2023/04/25 09:42:55;;;;;;;2.20;2.00;;;;;;;;;;5075140;28;20207;-87
2023/04/25 09:45:23;;;;;;;1.70;1.30;;;;;;;;;;5075338;28;20215;-87
2023/04/25 09:47:59;;;;;;;3.63;1.87;;;;;;;;;;5075622;28;20205;-87
2023/04/25 09:50:28;;;;;;;3.00;1.47;;;;;;;;;;5075257;28;20228;-87
2023/04/25 09:53:05;;;;;;;3.03;1.70;;;;;;;;;;5074530;28;20192;-87
2023/04/25 09:55:36;;;;;;;2.60;2.00;;;;;;;;;;5075076;28;20208;-86
2023/04/25 09:58:06;;;;;;;1.63;1.53;;;;;;;;;;5074710;28;20220;-86
2023/04/25 10:00:35;;;;;;;1.60;1.50;;;;;;;;;;5074879;28;20259;-87
2023/04/25 10:03:04;;;;;;;2.30;1.30;;;;;;;;;;5074746;28;20264;-87
2023/04/25 10:05:35;;;;;;;6.07;2.00;;;;;;;;;;5074423;28;20252;-87
2023/04/25 10:08:04;;;;;;;2.63;1.40;;;;;;;;;;5074728;28;20276;-87
2023/04/25 10:10:36;;;;;;;1.33;1.13;;;;;;;;;;5074780;28;20276;-87
2023/04/25 10:13:06;;;;;;;1.83;0.97;;;;;;;;;;5074836;28;20199;-87
2023/04/25 10:15:36;;;;;;;4.97;1.93;;;;;;;;;;5074224;28;20271;-86
2023/04/25 10:18:08;;;;;;;4.17;2.07;;;;;;;;;;5074966;28;20198;-86
2023/04/25 10:20:36;;;;;;;1.50;1.30;;;;;;;;;;5074649;28;20202;-86
2023/04/25 10:23:16;;;;;;;3.40;1.70;;;;;;;;;;5074375;28;20257;-86
2023/04/25 10:25:47;;;;;;;7.57;2.77;;;;;;;;;;5074789;28;20253;-86
2023/04/25 10:28:15;;;;;;;4.23;2.50;;;;;;;;;;5074340;28;20321;-86
2023/04/25 10:30:58;;;;;;;2.27;1.50;;;;;;;;;;5074003;28;20221;-86
2023/04/25 10:33:36;;;;;;;2.60;1.77;;;;;;;;;;5074192;28;20206;-86
2023/04/25 10:36:12;;;;;;;2.33;1.40;;;;;;;;;;5074187;28;20289;-86
2023/04/25 10:38:41;;;;;;;1.63;1.27;;;;;;;;;;5073972;28;20230;-86
2023/04/25 10:41:11;;;;;;;1.53;1.40;;;;;;;;;;5074526;28;20202;-86
2023/04/25 10:43:41;;;;;;;3.03;1.47;;;;;;;;;;5074739;28;20259;-87
2023/04/25 10:46:17;;;;;;;1.53;1.40;;;;;;;;;;5074111;28;20203;-86
2023/04/25 10:48:47;;;;;;;3.10;1.80;;;;;;;;;;5073973;28;20198;-85
2023/04/25 10:51:20;;;;;;;2.23;2.03;;;;;;;;;;5073912;28;20237;-86
2023/04/25 10:53:49;;;;;;;4.90;1.33;;;;;;;;;;5074128;28;20190;-86
2023/04/25 10:56:23;;;;;;;1.73;1.30;;;;;;;;;;5073865;28;20271;-87
2023/04/25 10:58:54;;;;;;;1.43;1.33;;;;;;;;;;5073875;28;20232;-86
2023/04/25 11:01:26;;;;;;;1.60;1.50;;;;;;;;;;5073928;28;20210;-86
2023/04/25 11:03:59;;;;;;;2.57;1.60;;;;;;;;;;5073853;28;20199;-86
2023/04/25 11:06:31;;;;;;;0.90;0.90;;;;;;;;;;5073582;28;20245;-86
2023/04/25 11:09:01;;;;;;;3.40;1.97;;;;;;;;;;5073681;28;20235;-86
2023/04/25 11:11:31;;;;;;;1.37;1.27;;;;;;;;;;5073542;28;20204;-86
2023/04/25 11:14:00;;;;;;;3.60;1.90;;;;;;;;;;5073958;28;20196;-86
2023/04/25 11:16:28;;;;;;;7.40;2.77;;;;;;;;;;5073582;28;20196;-86
2023/04/25 11:18:58;;;;;;;1.33;1.20;;;;;;;;;;5073297;28;20202;-86
2023/04/25 11:21:27;;;;;;;11.30;2.23;;;;;;;;;;5073483;28;20194;-87
2023/04/25 11:23:57;;;;;;;3.03;1.53;;;;;;;;;;5073319;28;20246;-87
2023/04/25 11:26:26;;;;;;;1.30;1.20;;;;;;;;;;5073045;28;20299;-86
2023/04/25 11:29:00;;;;;;;1.63;1.53;;;;;;;;;;5073793;28;20200;-86
2023/04/25 11:31:28;;;;;;;4.97;1.93;;;;;;;;;;5073223;28;20273;-86
2023/04/25 11:33:58;;;;;;;2.10;1.37;;;;;;;;;;5072917;28;20208;-85
2023/04/25 11:36:27;;;;;;;2.13;1.40;;;;;;;;;;5073163;28;20200;-86
2023/04/25 11:38:56;;;;;;;4.73;1.73;;;;;;;;;;5073582;28;20254;-86
2023/04/25 11:41:24;;;;;;;4.90;1.60;;;;;;;;;;5072903;28;20206;-86
2023/04/25 11:43:54;;;;;;;1.17;1.10;;;;;;;;;;5072937;28;20209;-85
2023/04/25 11:46:25;;;;;;;6.90;1.83;;;;;;;;;;5072867;28;20270;-85
2023/04/25 11:48:57;;;;;;;1.33;1.23;;;;;;;;;;5072820;28;20196;-86
2023/04/25 11:51:26;;;;;;;1.57;1.47;;;;;;;;;;5072619;28;20262;-85
2023/04/25 11:53:54;;;;;;;2.00;1.57;;;;;;;;;;5073145;28;20298;-85
2023/04/25 11:56:22;;;;;;;4.40;1.70;;;;;;;;;;5072767;28;20237;-85
2023/04/25 11:58:58;;;;;;;2.63;1.63;;;;;;;;;;5072437;28;20262;-85
2023/04/25 12:01:30;;;;;;;5.20;1.97;;;;;;;;;;5072412;28;20247;-85
2023/04/25 12:04:12;;;;;;;2.27;1.33;;;;;;;;;;5072565;28;20284;-85
2023/04/25 12:06:42;;;;;;;1.37;1.27;;;;;;;;;;5072795;28;20205;-85
2023/04/25 12:09:12;;;;;;;3.17;1.50;;;;;;;;;;5072640;28;20251;-85
2023/04/25 12:11:45;;;;;;;3.70;2.20;;;;;;;;;;5072213;28;20217;-85
2023/04/25 12:14:21;;;;;;;5.87;1.90;;;;;;;;;;5072358;28;20210;-85
2023/04/25 12:16:52;;;;;;;1.43;1.37;;;;;;;;;;5072327;28;20192;-85
2023/04/25 12:19:21;;;;;;;1.00;1.00;;;;;;;;;;5072780;28;20242;-85
2023/04/25 12:21:50;;;;;;;5.67;1.50;;;;;;;;;;5072216;28;20258;-85
2023/04/25 12:24:26;;;;;;;2.47;1.60;;;;;;;;;;5072527;28;20209;-85
2023/04/25 12:27:00;;;;;;;5.30;1.47;;;;;;;;;;5072123;28;20232;-85
2023/04/25 12:29:30;;;;;;;3.50;1.33;;;;;;;;;;5071790;28;20198;-86
2023/04/25 12:32:13;;;;;;;1.60;1.50;;;;;;;;;;5071674;28;20235;-86
2023/04/25 12:34:42;;;;;;;8.17;2.03;;;;;;;;;;5072134;28;20219;-86
2023/04/25 12:37:10;;;;;;;1.47;1.33;;;;;;;;;;5071767;28;20200;-86
2023/04/25 12:39:39;;;;;;;2.97;2.03;;;;;;;;;;5071958;28;20204;-85
2023/04/25 12:42:11;;;;;;;4.90;1.77;;;;;;;;;;5072336;28;20219;-86
2023/04/25 12:44:40;;;;;;;5.07;1.70;;;;;;;;;;5071708;28;20250;-86
2023/04/25 12:47:08;;;;;;;3.67;1.70;;;;;;;;;;5071912;28;20214;-86
2023/04/25 12:49:38;;;;;;;3.90;1.40;;;;;;;;;;5071977;28;20209;-86
2023/04/25 12:52:07;;;;;;;3.07;1.77;;;;;;;;;;5071509;28;20222;-86
2023/04/25 12:54:35;;;;;;;1.63;1.27;;;;;;;;;;5071730;28;20277;-86
2023/04/25 12:57:04;;;;;;;4.37;1.63;;;;;;;;;;5071850;28;20207;-85
2023/04/25 12:59:33;;;;;;;1.80;1.63;;;;;;;;;;5071381;28;20233;-86
2023/04/25 13:02:04;;;;;;;1.30;1.20;;;;;;;;;;5071643;28;20197;-86
2023/04/25 13:04:33;;;;;;;1.50;1.40;;;;;;;;;;5071843;28;20212;-84
2023/04/25 13:07:03;;;;;;;1.10;1.00;;;;;;;;;;5071469;28;20205;-83
2023/04/25 13:09:32;;;;;;;1.53;1.30;;;;;;;;;;5071302;28;20201;-83
2023/04/25 13:12:00;;;;;;;2.90;1.60;;;;;;;;;;5071304;28;20216;-84
2023/04/25 13:14:29;;;;;;;1.53;1.17;;;;;;;;;;5071693;28;20200;-84
2023/04/25 13:16:57;;;;;;;4.60;1.50;;;;;;;;;;5070991;28;20251;-83
2023/04/25 13:19:28;;;;;;;3.67;1.83;;;;;;;;;;5071337;28;20209;-83
2023/04/25 13:21:56;;;;;;;6.20;2.10;;;;;;;;;;5071338;28;20286;-84
2023/04/25 13:24:26;;;;;;;0.93;0.93;;;;;;;;;;5071107;28;20224;-84
2023/04/25 13:26:54;;;;;;;5.70;2.17;;;;;;;;;;5071360;28;20213;-83
2023/04/25 13:29:23;;;;;;;1.40;1.30;;;;;;;;;;5071491;28;20271;-83
2023/04/25 13:31:52;;;;;;;1.40;1.20;;;;;;;;;;5071189;28;20214;-84
2023/04/25 13:34:20;;;;;;;4.67;1.70;;;;;;;;;;5071245;28;20202;-84
2023/04/25 13:36:49;;;;;;;6.17;2.33;;;;;;;;;;5071715;28;20281;-83
2023/04/25 13:39:17;;;;;;;1.77;1.67;;;;;;;;;;5071208;28;20208;-84
2023/04/25 13:41:47;;;;;;;2.23;1.20;;;;;;;;;;5071665;28;20205;-84
2023/04/25 13:44:16;;;;;;;3.83;1.67;;;;;;;;;;5071039;28;20243;-84
2023/04/25 13:46:46;;;;;;;1.50;1.37;;;;;;;;;;5070964;28;20212;-86
2023/04/25 13:49:15;;;;;;;3.53;1.40;;;;;;;;;;5070912;28;20289;-84
2023/04/25 13:51:44;;;;;;;5.27;1.87;;;;;;;;;;5071484;28;20214;-84
2023/04/25 13:54:13;;;;;;;1.57;1.13;;;;;;;;;;5071399;28;20254;-84
2023/04/25 13:56:41;;;;;;;2.93;1.63;;;;;;;;;;5070935;28;20291;-84
2023/04/25 13:59:12;;;;;;;3.00;1.30;;;;;;;;;;5070702;28;20255;-84
2023/04/25 14:01:40;;;;;;;2.00;1.30;;;;;;;;;;5071185;28;20258;-84
2023/04/25 14:04:09;;;;;;;4.40;1.83;;;;;;;;;;5070741;28;20203;-84
2023/04/25 14:06:38;;;;;;;4.03;2.00;;;;;;;;;;5071443;28;20197;-84
2023/04/25 14:09:09;;;;;;;1.47;1.37;;;;;;;;;;5070633;28;20251;-84
2023/04/25 14:11:38;;;;;;;4.00;1.63;;;;;;;;;;5070849;28;20235;-84
2023/04/25 14:14:07;;;;;;;6.53;2.00;;;;;;;;;;5071030;28;20231;-85
2023/04/25 14:16:37;;;;;;;2.03;1.43;;;;;;;;;;5071032;28;20250;-84
2023/04/25 14:19:05;;;;;;;4.60;1.97;;;;;;;;;;5070674;28;20230;-84
2023/04/25 14:21:37;;;;;;;2.43;1.90;;;;;;;;;;5071694;28;20200;-83
2023/04/25 14:24:06;;;;;;;5.23;2.43;;;;;;;;;;5074409;28;20199;-84
2023/04/25 14:26:35;;;;;;;5.33;2.50;;;;;;;;;;5074138;28;20207;-84
2023/04/25 14:29:03;;;;;;;1.70;1.37;;;;;;;;;;5074762;28;20267;-84
2023/04/25 14:31:32;;;;;;;2.73;1.90;;;;;;;;;;5073996;28;20214;-84
2023/04/25 14:34:03;;;;;;;5.23;2.47;;;;;;;;;;5074085;28;20200;-84
2023/04/25 14:36:32;;;;;;;1.10;1.10;;;;;;;;;;5074146;28;20334;-85
2023/04/25 14:39:00;;;;;;;2.93;1.30;;;;;;;;;;5074002;28;20239;-84
2023/04/25 14:41:32;;;;;;;3.80;1.63;;;;;;;;;;5074139;28;20236;-84
2023/04/25 14:44:01;;;;;;;4.17;1.83;;;;;;;;;;5073930;28;20206;-84
2023/04/25 14:46:29;;;;;;;3.10;2.00;;;;;;;;;;5073992;28;20288;-84
2023/04/25 14:48:58;;;;;;;1.60;1.50;;;;;;;;;;5074100;28;20206;-84
2023/04/25 14:51:29;;;;;;;1.57;1.30;;;;;;;;;;5074047;28;20240;-84
2023/04/25 14:53:57;;;;;;;2.87;1.80;;;;;;;;;;5073916;28;20205;-84
2023/04/25 14:56:26;;;;;;;4.70;1.57;;;;;;;;;;5074328;28;20216;-84